CXA147 ZBTJ-ZSFZ
Flight info
| Callsign | CXA147 |
|---|---|
| Flight time | 2h 25m |
| Altitude | 351 |
| Route | ELKUR W40 YQG W142 DALIM A593 DPX A470 OF W95 SAPIN V143 EMRID A470 BZ |
| Aircraft | B378/L-SDE2E3GHIJ3J4J5LM1ORWXY/LB1D1 |
Departure
| Time | 2026-04-23 11:48 |
|---|---|
| Airport | Tianjin Binhai International Airport (ZBTJ) |
Arrival
| Time | 2026-04-23 14:14 |
|---|---|
| Airport | Fuzhou Changle International Airport (ZSFZ) |
| Time | Latitude | Longitude | Altitude | Speed | Heading |
|---|---|---|---|---|---|
| 2026-04-23 10:58 | 39.12443 | 117.35874 | 20 ft | 0 kts | 334° |
| 2026-04-23 11:28 | 39.12442 | 117.35875 | 18 ft | 2 kts | 334° |
| 2026-04-23 11:28 | 39.12420 | 117.35892 | 18 ft | 4 kts | 318° |
| 2026-04-23 11:28 | 39.12403 | 117.35918 | 19 ft | 4 kts | 292° |
| 2026-04-23 11:28 | 39.12398 | 117.35951 | 19 ft | 4 kts | 258° |
| 2026-04-23 11:29 | 39.12401 | 117.35966 | 20 ft | 1 kts | 244° |
| 2026-04-23 11:32 | 39.12400 | 117.35962 | 18 ft | 2 kts | 243° |
| 2026-04-23 11:32 | 39.12390 | 117.35937 | 20 ft | 5 kts | 243° |
| 2026-04-23 11:32 | 39.12372 | 117.35891 | 18 ft | 7 kts | 243° |
| 2026-04-23 11:33 | 39.12347 | 117.35826 | 18 ft | 9 kts | 244° |
| 2026-04-23 11:33 | 39.12327 | 117.35771 | 18 ft | 4 kts | 244° |
| 2026-04-23 11:33 | 39.12310 | 117.35726 | 18 ft | 7 kts | 244° |
| 2026-04-23 11:33 | 39.12294 | 117.35662 | 18 ft | 8 kts | 264° |
| 2026-04-23 11:34 | 39.12272 | 117.35585 | 18 ft | 10 kts | 243° |
| 2026-04-23 11:34 | 39.12238 | 117.35498 | 18 ft | 12 kts | 245° |
| 2026-04-23 11:34 | 39.12201 | 117.35394 | 18 ft | 13 kts | 246° |
| 2026-04-23 11:34 | 39.12162 | 117.35289 | 18 ft | 12 kts | 244° |
| 2026-04-23 11:35 | 39.12145 | 117.35185 | 18 ft | 13 kts | 305° |
| 2026-04-23 11:35 | 39.12226 | 117.35131 | 18 ft | 14 kts | 334° |
| 2026-04-23 11:35 | 39.12321 | 117.35073 | 18 ft | 16 kts | 334° |
| 2026-04-23 11:35 | 39.12425 | 117.35009 | 18 ft | 17 kts | 335° |
| 2026-04-23 11:36 | 39.12532 | 117.34942 | 19 ft | 18 kts | 334° |
| 2026-04-23 11:36 | 39.12647 | 117.34872 | 19 ft | 19 kts | 334° |
| 2026-04-23 11:36 | 39.12771 | 117.34794 | 20 ft | 20 kts | 334° |
| 2026-04-23 11:36 | 39.12899 | 117.34715 | 18 ft | 12 kts | 335° |
| 2026-04-23 11:37 | 39.12973 | 117.34671 | 18 ft | 12 kts | 335° |
| 2026-04-23 11:37 | 39.13045 | 117.34628 | 18 ft | 11 kts | 334° |
| 2026-04-23 11:37 | 39.13115 | 117.34585 | 18 ft | 11 kts | 335° |
| 2026-04-23 11:37 | 39.13183 | 117.34544 | 19 ft | 11 kts | 335° |
| 2026-04-23 11:38 | 39.13249 | 117.34504 | 18 ft | 10 kts | 334° |
| 2026-04-23 11:38 | 39.13312 | 117.34464 | 18 ft | 10 kts | 334° |
| 2026-04-23 11:38 | 39.13375 | 117.34426 | 18 ft | 10 kts | 334° |
| 2026-04-23 11:38 | 39.13436 | 117.34389 | 18 ft | 10 kts | 334° |
| 2026-04-23 11:39 | 39.13495 | 117.34353 | 18 ft | 9 kts | 334° |
| 2026-04-23 11:39 | 39.13552 | 117.34318 | 18 ft | 9 kts | 334° |
| 2026-04-23 11:39 | 39.13608 | 117.34283 | 18 ft | 9 kts | 334° |
| 2026-04-23 11:39 | 39.13662 | 117.34250 | 18 ft | 9 kts | 334° |
| 2026-04-23 11:40 | 39.13715 | 117.34217 | 18 ft | 8 kts | 335° |
| 2026-04-23 11:40 | 39.13766 | 117.34186 | 20 ft | 8 kts | 334° |
| 2026-04-23 11:40 | 39.13816 | 117.34156 | 18 ft | 8 kts | 335° |
| 2026-04-23 11:40 | 39.13864 | 117.34127 | 18 ft | 8 kts | 335° |
| 2026-04-23 11:41 | 39.13911 | 117.34099 | 20 ft | 7 kts | 335° |
| 2026-04-23 11:41 | 39.13956 | 117.34072 | 19 ft | 7 kts | 334° |
| 2026-04-23 11:41 | 39.13999 | 117.34045 | 18 ft | 7 kts | 334° |
| 2026-04-23 11:41 | 39.14042 | 117.34018 | 20 ft | 7 kts | 335° |
| 2026-04-23 11:42 | 39.14084 | 117.33993 | 20 ft | 7 kts | 335° |
| 2026-04-23 11:42 | 39.14126 | 117.33968 | 18 ft | 7 kts | 335° |
| 2026-04-23 11:42 | 39.14156 | 117.33929 | 18 ft | 6 kts | 286° |
| 2026-04-23 11:42 | 39.14144 | 117.33876 | 20 ft | 6 kts | 244° |
| 2026-04-23 11:43 | 39.14125 | 117.33826 | 18 ft | 6 kts | 244° |
| 2026-04-23 11:43 | 39.14106 | 117.33778 | 18 ft | 6 kts | 243° |
| 2026-04-23 11:43 | 39.14100 | 117.33762 | 18 ft | 0 kts | 243° |
| 2026-04-23 11:46 | 39.14099 | 117.33760 | 18 ft | 1 kts | 244° |
| 2026-04-23 11:46 | 39.14095 | 117.33746 | 18 ft | 3 kts | 248° |
| 2026-04-23 11:46 | 39.14084 | 117.33714 | 20 ft | 5 kts | 245° |
| 2026-04-23 11:46 | 39.14065 | 117.33665 | 18 ft | 7 kts | 242° |
| 2026-04-23 11:47 | 39.14023 | 117.33634 | 18 ft | 8 kts | 162° |
| 2026-04-23 11:47 | 39.13991 | 117.33662 | 18 ft | 9 kts | 156° |
| 2026-04-23 11:47 | 39.13760 | 117.33801 | 20 ft | 70 kts | 153° |
| 2026-04-23 11:47 | 39.13104 | 117.34205 | 18 ft | 137 kts | 155° |
| 2026-04-23 11:48 | 39.12433 | 117.34583 | 50 ft | 172 kts | 158° |
| 2026-04-23 11:48 | 39.11265 | 117.35315 | 431 ft | 194 kts | 153° |
| 2026-04-23 11:48 | 39.10097 | 117.36138 | 1416 ft | 183 kts | 156° |
| 2026-04-23 11:48 | 39.08980 | 117.36847 | 2352 ft | 181 kts | 161° |
| 2026-04-23 11:49 | 39.07794 | 117.37547 | 2854 ft | 195 kts | 161° |
| 2026-04-23 11:49 | 39.06487 | 117.38319 | 3004 ft | 220 kts | 160° |
| 2026-04-23 11:49 | 39.05043 | 117.39180 | 3002 ft | 234 kts | 160° |
| 2026-04-23 11:49 | 39.03560 | 117.40075 | 2977 ft | 236 kts | 159° |
| 2026-04-23 11:50 | 39.02053 | 117.40984 | 3228 ft | 242 kts | 159° |
| 2026-04-23 11:50 | 39.00544 | 117.41893 | 3951 ft | 244 kts | 159° |
| 2026-04-23 11:50 | 38.98991 | 117.42835 | 4651 ft | 251 kts | 156° |
| 2026-04-23 11:50 | 38.97647 | 117.44337 | 5271 ft | 264 kts | 124° |
| 2026-04-23 11:51 | 38.97003 | 117.46556 | 5988 ft | 270 kts | 97° |
| 2026-04-23 11:51 | 38.97075 | 117.48979 | 6637 ft | 274 kts | 81° |
| 2026-04-23 11:51 | 38.97382 | 117.51406 | 7364 ft | 274 kts | 79° |
| 2026-04-23 11:51 | 38.97704 | 117.53827 | 8088 ft | 276 kts | 79° |
| 2026-04-23 11:52 | 38.98023 | 117.56265 | 8799 ft | 277 kts | 79° |
| 2026-04-23 11:52 | 38.98331 | 117.58710 | 9531 ft | 278 kts | 79° |
| 2026-04-23 11:52 | 38.98634 | 117.61167 | 10219 ft | 279 kts | 79° |
| 2026-04-23 11:52 | 38.98934 | 117.63634 | 10888 ft | 280 kts | 80° |
| 2026-04-23 11:53 | 38.99181 | 117.66121 | 11502 ft | 284 kts | 90° |
| 2026-04-23 11:53 | 38.98706 | 117.68538 | 12066 ft | 287 kts | 121° |
| 2026-04-23 11:53 | 38.97343 | 117.70421 | 12694 ft | 286 kts | 151° |
| 2026-04-23 11:53 | 38.95492 | 117.71319 | 13305 ft | 285 kts | 172° |
| 2026-04-23 11:54 | 38.93514 | 117.71670 | 13891 ft | 288 kts | 175° |
| 2026-04-23 11:54 | 38.91533 | 117.71961 | 14420 ft | 291 kts | 177° |
| 2026-04-23 11:54 | 38.89536 | 117.71684 | 14920 ft | 291 kts | 204° |
| 2026-04-23 11:54 | 38.87860 | 117.70286 | 15418 ft | 290 kts | 229° |
| 2026-04-23 11:55 | 38.86776 | 117.68064 | 15577 ft | 303 kts | 253° |
| 2026-04-23 11:55 | 38.86327 | 117.65361 | 15740 ft | 318 kts | 263° |
| 2026-04-23 11:55 | 38.86018 | 117.62467 | 15872 ft | 337 kts | 264° |
| 2026-04-23 11:55 | 38.85789 | 117.59403 | 15983 ft | 353 kts | 274° |
| 2026-04-23 11:56 | 38.86329 | 117.56279 | 16122 ft | 367 kts | 290° |
| 2026-04-23 11:56 | 38.87245 | 117.53149 | 16237 ft | 383 kts | 292° |
| 2026-04-23 11:56 | 38.88215 | 117.49903 | 16461 ft | 394 kts | 291° |
| 2026-04-23 11:56 | 38.89187 | 117.46590 | 16910 ft | 399 kts | 291° |
| 2026-04-23 11:57 | 38.90148 | 117.43244 | 17467 ft | 401 kts | 291° |
| 2026-04-23 11:57 | 38.91108 | 117.39865 | 17995 ft | 404 kts | 290° |
| 2026-04-23 11:57 | 38.91737 | 117.36333 | 18371 ft | 412 kts | 272° |
| 2026-04-23 11:57 | 38.91401 | 117.32668 | 18815 ft | 417 kts | 255° |
| 2026-04-23 11:58 | 38.90248 | 117.29252 | 19298 ft | 420 kts | 243° |
| 2026-04-23 11:58 | 38.88831 | 117.25960 | 19750 ft | 423 kts | 243° |
| 2026-04-23 11:58 | 38.87413 | 117.22623 | 20114 ft | 427 kts | 243° |
| 2026-04-23 11:58 | 38.86132 | 117.19548 | 20412 ft | 432 kts | 243° |
| 2026-04-23 11:59 | 38.84726 | 117.16129 | 20816 ft | 434 kts | 244° |
| 2026-04-23 11:59 | 38.83323 | 117.12700 | 21303 ft | 435 kts | 244° |
| 2026-04-23 11:59 | 38.81914 | 117.09260 | 21726 ft | 437 kts | 244° |
| 2026-04-23 11:59 | 38.80494 | 117.05800 | 22075 ft | 440 kts | 244° |
| 2026-04-23 12:00 | 38.79055 | 117.02302 | 22398 ft | 444 kts | 244° |
| 2026-04-23 12:00 | 38.77608 | 116.98790 | 22772 ft | 447 kts | 244° |
| 2026-04-23 12:00 | 38.76147 | 116.95252 | 23148 ft | 449 kts | 244° |
| 2026-04-23 12:00 | 38.74679 | 116.91708 | 23495 ft | 452 kts | 243° |
| 2026-04-23 12:01 | 38.73182 | 116.88148 | 23730 ft | 456 kts | 243° |
| 2026-04-23 12:01 | 38.71662 | 116.84563 | 24028 ft | 458 kts | 243° |
| 2026-04-23 12:01 | 38.70142 | 116.80984 | 24415 ft | 458 kts | 243° |
| 2026-04-23 12:01 | 38.68618 | 116.77390 | 24726 ft | 460 kts | 243° |
| 2026-04-23 12:02 | 38.67090 | 116.73783 | 24980 ft | 462 kts | 243° |
| 2026-04-23 12:02 | 38.65344 | 116.70314 | 25174 ft | 469 kts | 229° |
| 2026-04-23 12:02 | 38.62795 | 116.67689 | 25447 ft | 473 kts | 210° |
| 2026-04-23 12:02 | 38.59822 | 116.66053 | 25771 ft | 474 kts | 194° |
| 2026-04-23 12:03 | 38.56548 | 116.65426 | 26014 ft | 477 kts | 185° |
| 2026-04-23 12:03 | 38.53230 | 116.65106 | 26248 ft | 479 kts | 184° |
| 2026-04-23 12:03 | 38.49895 | 116.64806 | 26472 ft | 482 kts | 184° |
| 2026-04-23 12:03 | 38.46546 | 116.64480 | 26722 ft | 484 kts | 184° |
| 2026-04-23 12:04 | 38.43187 | 116.64120 | 26977 ft | 485 kts | 185° |
| 2026-04-23 12:04 | 38.39818 | 116.63736 | 27222 ft | 487 kts | 185° |
| 2026-04-23 12:04 | 38.36424 | 116.63341 | 27473 ft | 489 kts | 185° |
| 2026-04-23 12:04 | 38.33040 | 116.62951 | 27807 ft | 488 kts | 184° |
| 2026-04-23 12:05 | 38.29652 | 116.62870 | 28185 ft | 486 kts | 175° |
| 2026-04-23 12:05 | 38.26313 | 116.63418 | 28572 ft | 483 kts | 166° |
| 2026-04-23 12:05 | 38.23086 | 116.64569 | 28915 ft | 481 kts | 161° |
| 2026-04-23 12:05 | 38.19885 | 116.65844 | 29235 ft | 481 kts | 161° |
| 2026-04-23 12:06 | 38.16686 | 116.67093 | 29565 ft | 481 kts | 162° |
| 2026-04-23 12:06 | 38.13487 | 116.68294 | 29960 ft | 479 kts | 162° |
| 2026-04-23 12:06 | 38.07148 | 116.70646 | 30529 ft | 477 kts | 162° |
| 2026-04-23 12:07 | 38.03960 | 116.71860 | 30777 ft | 477 kts | 162° |
| 2026-04-23 12:07 | 38.00782 | 116.73079 | 31056 ft | 477 kts | 162° |
| 2026-04-23 12:07 | 37.97616 | 116.74296 | 31363 ft | 475 kts | 162° |
| 2026-04-23 12:07 | 37.94449 | 116.75510 | 31614 ft | 475 kts | 162° |
| 2026-04-23 12:08 | 37.91279 | 116.76721 | 31855 ft | 475 kts | 162° |
| 2026-04-23 12:08 | 37.88118 | 116.77925 | 32103 ft | 475 kts | 163° |
| 2026-04-23 12:08 | 37.84955 | 116.79129 | 32367 ft | 474 kts | 163° |
| 2026-04-23 12:08 | 37.81797 | 116.80328 | 32633 ft | 473 kts | 163° |
| 2026-04-23 12:09 | 37.78652 | 116.81521 | 32879 ft | 473 kts | 163° |
| 2026-04-23 12:09 | 37.75530 | 116.82704 | 33110 ft | 472 kts | 163° |
| 2026-04-23 12:09 | 37.72355 | 116.83906 | 33353 ft | 472 kts | 163° |
| 2026-04-23 12:09 | 37.69214 | 116.85095 | 33588 ft | 472 kts | 164° |
| 2026-04-23 12:10 | 37.66069 | 116.86284 | 33767 ft | 472 kts | 164° |
| 2026-04-23 12:10 | 37.62923 | 116.87470 | 33993 ft | 472 kts | 164° |
| 2026-04-23 12:10 | 37.59780 | 116.88653 | 34171 ft | 472 kts | 165° |
| 2026-04-23 12:10 | 37.56638 | 116.89839 | 34319 ft | 472 kts | 165° |
| 2026-04-23 12:11 | 37.53529 | 116.91013 | 34485 ft | 472 kts | 165° |
| 2026-04-23 12:11 | 37.50382 | 116.92199 | 34675 ft | 471 kts | 165° |
| 2026-04-23 12:11 | 37.47238 | 116.93383 | 34839 ft | 471 kts | 165° |
| 2026-04-23 12:11 | 37.44098 | 116.94563 | 34977 ft | 472 kts | 166° |
| 2026-04-23 12:12 | 37.37787 | 116.96931 | 35053 ft | 475 kts | 166° |
| 2026-04-23 12:12 | 37.31452 | 116.99305 | 35072 ft | 476 kts | 166° |
| 2026-04-23 12:13 | 37.25169 | 117.01998 | 35068 ft | 478 kts | 161° |
| 2026-04-23 12:13 | 37.18973 | 117.05013 | 35066 ft | 477 kts | 161° |
| 2026-04-23 12:14 | 37.12761 | 117.07920 | 35072 ft | 476 kts | 162° |
| 2026-04-23 12:14 | 37.06547 | 117.10790 | 35072 ft | 476 kts | 162° |
| 2026-04-23 12:15 | 37.00343 | 117.13664 | 35079 ft | 475 kts | 162° |
| 2026-04-23 12:15 | 36.94181 | 117.16521 | 35081 ft | 475 kts | 162° |
| 2026-04-23 12:16 | 36.87980 | 117.19390 | 35083 ft | 475 kts | 162° |
| 2026-04-23 12:16 | 36.81651 | 117.21546 | 35089 ft | 469 kts | 176° |
| 2026-04-23 12:17 | 36.75175 | 117.21662 | 35085 ft | 465 kts | 185° |
| 2026-04-23 12:17 | 36.68693 | 117.21518 | 35091 ft | 465 kts | 185° |
| 2026-04-23 12:18 | 36.62214 | 117.21440 | 35103 ft | 466 kts | 185° |
| 2026-04-23 12:18 | 36.55764 | 117.21397 | 35105 ft | 467 kts | 184° |
| 2026-04-23 12:19 | 36.49224 | 117.21354 | 35113 ft | 466 kts | 185° |
| 2026-04-23 12:19 | 36.42778 | 117.21390 | 35107 ft | 469 kts | 179° |
| 2026-04-23 12:20 | 36.36351 | 117.23154 | 35132 ft | 476 kts | 167° |
| 2026-04-23 12:20 | 36.30017 | 117.25629 | 35113 ft | 477 kts | 167° |
| 2026-04-23 12:21 | 36.23683 | 117.28053 | 35121 ft | 476 kts | 167° |
| 2026-04-23 12:21 | 36.17341 | 117.30416 | 35125 ft | 475 kts | 168° |
| 2026-04-23 12:22 | 36.11005 | 117.32762 | 35122 ft | 475 kts | 168° |
| 2026-04-23 12:22 | 36.04670 | 117.35109 | 35124 ft | 475 kts | 168° |
| 2026-04-23 12:23 | 35.98346 | 117.37449 | 35116 ft | 474 kts | 168° |
| 2026-04-23 12:23 | 35.92029 | 117.39813 | 35128 ft | 474 kts | 168° |
| 2026-04-23 12:24 | 35.85721 | 117.42181 | 35125 ft | 474 kts | 168° |
| 2026-04-23 12:24 | 35.79412 | 117.44543 | 35123 ft | 473 kts | 168° |
| 2026-04-23 12:25 | 35.73146 | 117.46882 | 35128 ft | 473 kts | 168° |
| 2026-04-23 12:25 | 35.66848 | 117.49217 | 35133 ft | 472 kts | 168° |
| 2026-04-23 12:26 | 35.60561 | 117.51561 | 35137 ft | 472 kts | 168° |
| 2026-04-23 12:26 | 35.54272 | 117.53901 | 35137 ft | 472 kts | 169° |
| 2026-04-23 12:27 | 35.47984 | 117.56233 | 35140 ft | 472 kts | 169° |
| 2026-04-23 12:27 | 35.41692 | 117.58562 | 35136 ft | 472 kts | 169° |
| 2026-04-23 12:28 | 35.35412 | 117.60881 | 35141 ft | 471 kts | 169° |
| 2026-04-23 12:28 | 35.29127 | 117.63201 | 35134 ft | 471 kts | 169° |
| 2026-04-23 12:29 | 35.22852 | 117.65512 | 35145 ft | 471 kts | 169° |
| 2026-04-23 12:29 | 35.16579 | 117.67819 | 35149 ft | 470 kts | 169° |
| 2026-04-23 12:30 | 35.10353 | 117.70106 | 35149 ft | 470 kts | 169° |
| 2026-04-23 12:30 | 35.04084 | 117.72402 | 35136 ft | 470 kts | 169° |
| 2026-04-23 12:31 | 34.97829 | 117.74680 | 35146 ft | 469 kts | 169° |
| 2026-04-23 12:31 | 34.91572 | 117.76956 | 35148 ft | 469 kts | 169° |
| 2026-04-23 12:32 | 34.85316 | 117.79230 | 35147 ft | 469 kts | 169° |
| 2026-04-23 12:32 | 34.79058 | 117.81466 | 35148 ft | 468 kts | 170° |
| 2026-04-23 12:33 | 34.72807 | 117.83707 | 35152 ft | 468 kts | 170° |
| 2026-04-23 12:33 | 34.66561 | 117.85953 | 35148 ft | 468 kts | 170° |
| 2026-04-23 12:34 | 34.60319 | 117.88193 | 35151 ft | 468 kts | 170° |
| 2026-04-23 12:34 | 34.55131 | 117.90051 | 35139 ft | 467 kts | 171° |
| 2026-04-23 12:35 | 34.47841 | 117.92657 | 35149 ft | 467 kts | 171° |
| 2026-04-23 12:35 | 34.42664 | 117.94505 | 35153 ft | 467 kts | 171° |
| 2026-04-23 12:36 | 34.36431 | 117.96727 | 35151 ft | 467 kts | 171° |
| 2026-04-23 12:36 | 34.30205 | 117.98945 | 35146 ft | 466 kts | 171° |
| 2026-04-23 12:37 | 34.23977 | 118.01181 | 35147 ft | 466 kts | 171° |
| 2026-04-23 12:37 | 34.17780 | 118.03460 | 35155 ft | 466 kts | 171° |
| 2026-04-23 12:38 | 34.11582 | 118.05736 | 35156 ft | 466 kts | 171° |
| 2026-04-23 12:38 | 34.05386 | 118.08000 | 35136 ft | 464 kts | 172° |
| 2026-04-23 12:39 | 33.99259 | 118.10235 | 35145 ft | 463 kts | 172° |
| 2026-04-23 12:39 | 33.93104 | 118.12487 | 35154 ft | 462 kts | 172° |
| 2026-04-23 12:40 | 33.86961 | 118.14733 | 35156 ft | 461 kts | 172° |
| 2026-04-23 12:40 | 33.80824 | 118.16973 | 35133 ft | 460 kts | 172° |
| 2026-04-23 12:41 | 33.74700 | 118.19206 | 35141 ft | 460 kts | 172° |
| 2026-04-23 12:41 | 33.68579 | 118.21435 | 35150 ft | 459 kts | 172° |
| 2026-04-23 12:42 | 33.62494 | 118.23648 | 35153 ft | 459 kts | 172° |
| 2026-04-23 12:42 | 33.56373 | 118.25871 | 35120 ft | 459 kts | 172° |
| 2026-04-23 12:43 | 33.50249 | 118.28093 | 35142 ft | 459 kts | 172° |
| 2026-04-23 12:43 | 33.44131 | 118.30309 | 35163 ft | 459 kts | 172° |
| 2026-04-23 12:44 | 33.38005 | 118.32524 | 35149 ft | 460 kts | 172° |
| 2026-04-23 12:44 | 33.31870 | 118.34740 | 35159 ft | 460 kts | 172° |
| 2026-04-23 12:45 | 33.25737 | 118.36953 | 35130 ft | 460 kts | 173° |
| 2026-04-23 12:45 | 33.19650 | 118.39140 | 35144 ft | 459 kts | 173° |
| 2026-04-23 12:46 | 33.13528 | 118.41338 | 35151 ft | 459 kts | 173° |
| 2026-04-23 12:46 | 33.07418 | 118.43522 | 35147 ft | 458 kts | 173° |
| 2026-04-23 12:47 | 33.01313 | 118.45701 | 35146 ft | 458 kts | 173° |
| 2026-04-23 12:47 | 32.95208 | 118.47879 | 35147 ft | 458 kts | 173° |
| 2026-04-23 12:48 | 32.89109 | 118.50052 | 35140 ft | 458 kts | 173° |
| 2026-04-23 12:48 | 32.83004 | 118.52225 | 35147 ft | 458 kts | 173° |
| 2026-04-23 12:49 | 32.76897 | 118.54395 | 35124 ft | 457 kts | 174° |
| 2026-04-23 12:49 | 32.70803 | 118.56558 | 35145 ft | 457 kts | 174° |
| 2026-04-23 12:50 | 32.64710 | 118.58702 | 35140 ft | 456 kts | 174° |
| 2026-04-23 12:50 | 32.58611 | 118.60773 | 35144 ft | 455 kts | 174° |
| 2026-04-23 12:51 | 32.52511 | 118.62833 | 35117 ft | 456 kts | 175° |
| 2026-04-23 12:51 | 32.46461 | 118.64884 | 35137 ft | 455 kts | 175° |
| 2026-04-23 12:52 | 32.40370 | 118.66946 | 35116 ft | 455 kts | 175° |
| 2026-04-23 12:52 | 32.34284 | 118.69009 | 35128 ft | 455 kts | 175° |
| 2026-04-23 12:53 | 32.28206 | 118.71067 | 35143 ft | 454 kts | 175° |
| 2026-04-23 12:53 | 32.22129 | 118.73117 | 35137 ft | 454 kts | 175° |
| 2026-04-23 12:54 | 32.16047 | 118.75166 | 35139 ft | 454 kts | 175° |
| 2026-04-23 12:54 | 32.09962 | 118.77214 | 35139 ft | 455 kts | 175° |
| 2026-04-23 12:55 | 32.03879 | 118.79260 | 35140 ft | 455 kts | 175° |
| 2026-04-23 12:55 | 31.97786 | 118.81301 | 35127 ft | 454 kts | 176° |
| 2026-04-23 12:56 | 31.91698 | 118.83230 | 35135 ft | 453 kts | 177° |
| 2026-04-23 12:56 | 31.85641 | 118.85135 | 35149 ft | 453 kts | 176° |
| 2026-04-23 12:57 | 31.79551 | 118.87215 | 35149 ft | 459 kts | 173° |
| 2026-04-23 12:57 | 31.76555 | 118.88679 | 35142 ft | 474 kts | 163° |
| 2026-04-23 12:57 | 31.73686 | 118.90695 | 35110 ft | 487 kts | 156° |
| 2026-04-23 12:58 | 31.71044 | 118.93265 | 35161 ft | 500 kts | 148° |
| 2026-04-23 12:58 | 31.68517 | 118.96089 | 35134 ft | 501 kts | 148° |
| 2026-04-23 12:58 | 31.65891 | 118.98728 | 35135 ft | 489 kts | 155° |
| 2026-04-23 12:58 | 31.63128 | 119.01015 | 35145 ft | 486 kts | 157° |
| 2026-04-23 12:59 | 31.57585 | 119.05470 | 35119 ft | 478 kts | 163° |
| 2026-04-23 12:59 | 31.54648 | 119.07154 | 35132 ft | 464 kts | 171° |
| 2026-04-23 12:59 | 31.51623 | 119.08280 | 35138 ft | 450 kts | 179° |
| 2026-04-23 13:00 | 31.45534 | 119.10001 | 35134 ft | 450 kts | 179° |
| 2026-04-23 13:00 | 31.39452 | 119.11733 | 35133 ft | 450 kts | 179° |
| 2026-04-23 13:01 | 31.33376 | 119.13496 | 35141 ft | 450 kts | 179° |
| 2026-04-23 13:01 | 31.27302 | 119.15276 | 35137 ft | 450 kts | 179° |
| 2026-04-23 13:02 | 31.21272 | 119.17044 | 35137 ft | 450 kts | 179° |
| 2026-04-23 13:02 | 31.15208 | 119.18822 | 35137 ft | 448 kts | 180° |
| 2026-04-23 13:03 | 31.09160 | 119.20590 | 35131 ft | 448 kts | 180° |
| 2026-04-23 13:03 | 31.03115 | 119.22353 | 35139 ft | 447 kts | 180° |
| 2026-04-23 13:04 | 30.97076 | 119.24161 | 35138 ft | 447 kts | 179° |
| 2026-04-23 13:04 | 30.91061 | 119.25939 | 35091 ft | 445 kts | 181° |
| 2026-04-23 13:05 | 30.85065 | 119.27676 | 35130 ft | 444 kts | 180° |
| 2026-04-23 13:05 | 30.79084 | 119.29396 | 35139 ft | 443 kts | 181° |
| 2026-04-23 13:06 | 30.70139 | 119.31987 | 35145 ft | 444 kts | 181° |
| 2026-04-23 13:07 | 30.64136 | 119.33727 | 35125 ft | 445 kts | 180° |
| 2026-04-23 13:07 | 30.58116 | 119.35458 | 35148 ft | 446 kts | 181° |
| 2026-04-23 13:08 | 30.52089 | 119.37194 | 35157 ft | 446 kts | 180° |
| 2026-04-23 13:08 | 30.46060 | 119.38932 | 35160 ft | 445 kts | 180° |
| 2026-04-23 13:09 | 30.40041 | 119.40669 | 35135 ft | 446 kts | 181° |
| 2026-04-23 13:09 | 30.34064 | 119.42383 | 35141 ft | 438 kts | 181° |
| 2026-04-23 13:10 | 30.28134 | 119.44104 | 35138 ft | 439 kts | 181° |
| 2026-04-23 13:10 | 30.22221 | 119.45782 | 35153 ft | 437 kts | 181° |
| 2026-04-23 13:11 | 30.16327 | 119.47468 | 35149 ft | 436 kts | 181° |
| 2026-04-23 13:11 | 30.10441 | 119.49155 | 35112 ft | 436 kts | 181° |
| 2026-04-23 13:12 | 30.04600 | 119.50823 | 35151 ft | 436 kts | 181° |
| 2026-04-23 13:12 | 29.98670 | 119.52477 | 35126 ft | 438 kts | 182° |
| 2026-04-23 13:13 | 29.92721 | 119.54143 | 35141 ft | 443 kts | 180° |
| 2026-04-23 13:13 | 29.86714 | 119.55898 | 35101 ft | 447 kts | 181° |
| 2026-04-23 13:14 | 29.80682 | 119.57617 | 35120 ft | 445 kts | 181° |
| 2026-04-23 13:14 | 29.74650 | 119.59288 | 35104 ft | 449 kts | 181° |
| 2026-04-23 13:15 | 29.68580 | 119.61052 | 35141 ft | 449 kts | 181° |
| 2026-04-23 13:15 | 29.62514 | 119.62749 | 35103 ft | 445 kts | 182° |
| 2026-04-23 13:16 | 29.56535 | 119.64457 | 35134 ft | 438 kts | 182° |
| 2026-04-23 13:16 | 29.53626 | 119.64898 | 35117 ft | 415 kts | 194° |
| 2026-04-23 13:16 | 29.50797 | 119.64748 | 35079 ft | 406 kts | 198° |
| 2026-04-23 13:17 | 29.45123 | 119.64366 | 35059 ft | 409 kts | 198° |
| 2026-04-23 13:17 | 29.39488 | 119.63985 | 35106 ft | 407 kts | 197° |
| 2026-04-23 13:18 | 29.33811 | 119.63608 | 35089 ft | 411 kts | 197° |
| 2026-04-23 13:18 | 29.28069 | 119.63243 | 35139 ft | 416 kts | 197° |
| 2026-04-23 13:19 | 29.22264 | 119.62859 | 35127 ft | 419 kts | 197° |
| 2026-04-23 13:19 | 29.16417 | 119.62503 | 35132 ft | 423 kts | 197° |
| 2026-04-23 13:20 | 29.10583 | 119.62146 | 35119 ft | 415 kts | 197° |
| 2026-04-23 13:20 | 29.05823 | 119.61854 | 35118 ft | 411 kts | 197° |
| 2026-04-23 13:21 | 28.99151 | 119.61450 | 35142 ft | 410 kts | 197° |
| 2026-04-23 13:21 | 28.94412 | 119.61156 | 35119 ft | 411 kts | 197° |
| 2026-04-23 13:22 | 28.88686 | 119.60801 | 35113 ft | 414 kts | 196° |
| 2026-04-23 13:22 | 28.82933 | 119.60437 | 35113 ft | 415 kts | 197° |
| 2026-04-23 13:23 | 28.77162 | 119.60074 | 35105 ft | 416 kts | 196° |
| 2026-04-23 13:23 | 28.71379 | 119.59714 | 35138 ft | 417 kts | 196° |
| 2026-04-23 13:24 | 28.65565 | 119.59351 | 35122 ft | 419 kts | 197° |
| 2026-04-23 13:24 | 28.59748 | 119.58989 | 35124 ft | 419 kts | 196° |
| 2026-04-23 13:25 | 28.53921 | 119.58622 | 35084 ft | 420 kts | 196° |
| 2026-04-23 13:25 | 28.48080 | 119.58255 | 35118 ft | 421 kts | 196° |
| 2026-04-23 13:26 | 28.42212 | 119.57916 | 35112 ft | 425 kts | 196° |
| 2026-04-23 13:26 | 28.36299 | 119.57615 | 35122 ft | 425 kts | 196° |
| 2026-04-23 13:27 | 28.30377 | 119.57311 | 35068 ft | 427 kts | 195° |
| 2026-04-23 13:27 | 28.24490 | 119.56986 | 35105 ft | 426 kts | 195° |
| 2026-04-23 13:28 | 28.18569 | 119.56666 | 35127 ft | 425 kts | 196° |
| 2026-04-23 13:28 | 28.12653 | 119.56346 | 35129 ft | 425 kts | 195° |
| 2026-04-23 13:29 | 28.06729 | 119.56101 | 35069 ft | 427 kts | 193° |
| 2026-04-23 13:29 | 28.03750 | 119.56084 | 34923 ft | 432 kts | 192° |
| 2026-04-23 13:29 | 28.00726 | 119.56092 | 34708 ft | 436 kts | 192° |
| 2026-04-23 13:29 | 27.97702 | 119.56129 | 34446 ft | 434 kts | 192° |
| 2026-04-23 13:30 | 27.94692 | 119.56133 | 34247 ft | 431 kts | 193° |
| 2026-04-23 13:30 | 27.91696 | 119.56126 | 34035 ft | 430 kts | 192° |
| 2026-04-23 13:30 | 27.88711 | 119.56110 | 33739 ft | 429 kts | 193° |
| 2026-04-23 13:30 | 27.85730 | 119.56087 | 33505 ft | 428 kts | 192° |
| 2026-04-23 13:31 | 27.82747 | 119.56060 | 33257 ft | 430 kts | 192° |
| 2026-04-23 13:31 | 27.79744 | 119.56034 | 32994 ft | 434 kts | 192° |
| 2026-04-23 13:31 | 27.76712 | 119.56002 | 32717 ft | 437 kts | 192° |
| 2026-04-23 13:31 | 27.73671 | 119.55976 | 32512 ft | 437 kts | 192° |
| 2026-04-23 13:32 | 27.70620 | 119.55952 | 32218 ft | 439 kts | 192° |
| 2026-04-23 13:32 | 27.67606 | 119.55937 | 32027 ft | 440 kts | 192° |
| 2026-04-23 13:32 | 27.64500 | 119.55919 | 31778 ft | 441 kts | 192° |
| 2026-04-23 13:32 | 27.61471 | 119.55898 | 31530 ft | 441 kts | 192° |
| 2026-04-23 13:33 | 27.58399 | 119.55878 | 31320 ft | 442 kts | 192° |
| 2026-04-23 13:33 | 27.55325 | 119.55857 | 31024 ft | 443 kts | 191° |
| 2026-04-23 13:33 | 27.52242 | 119.55835 | 30790 ft | 442 kts | 191° |
| 2026-04-23 13:33 | 27.49166 | 119.55813 | 30564 ft | 442 kts | 191° |
| 2026-04-23 13:34 | 27.46080 | 119.55793 | 30346 ft | 443 kts | 191° |
| 2026-04-23 13:34 | 27.42996 | 119.55772 | 30106 ft | 444 kts | 191° |
| 2026-04-23 13:34 | 27.39906 | 119.55746 | 29836 ft | 444 kts | 191° |
| 2026-04-23 13:34 | 27.36815 | 119.55724 | 29569 ft | 445 kts | 191° |
| 2026-04-23 13:35 | 27.33715 | 119.55702 | 29293 ft | 445 kts | 191° |
| 2026-04-23 13:35 | 27.30616 | 119.55684 | 29069 ft | 446 kts | 191° |
| 2026-04-23 13:35 | 27.27507 | 119.55663 | 28752 ft | 447 kts | 190° |
| 2026-04-23 13:35 | 27.24393 | 119.55645 | 28482 ft | 447 kts | 189° |
| 2026-04-23 13:36 | 27.21295 | 119.55622 | 28228 ft | 441 kts | 190° |
| 2026-04-23 13:36 | 27.18251 | 119.55603 | 27948 ft | 435 kts | 190° |
| 2026-04-23 13:36 | 27.15229 | 119.55585 | 27704 ft | 435 kts | 190° |
| 2026-04-23 13:36 | 27.12188 | 119.55563 | 27467 ft | 436 kts | 190° |
| 2026-04-23 13:37 | 27.09163 | 119.55538 | 27214 ft | 435 kts | 190° |
| 2026-04-23 13:37 | 27.06136 | 119.55516 | 26922 ft | 433 kts | 189° |
| 2026-04-23 13:37 | 27.03176 | 119.55499 | 26418 ft | 428 kts | 189° |
| 2026-04-23 13:37 | 27.00217 | 119.55485 | 25886 ft | 424 kts | 189° |
| 2026-04-23 13:38 | 26.97284 | 119.55466 | 25385 ft | 419 kts | 189° |
| 2026-04-23 13:38 | 26.94373 | 119.55446 | 24886 ft | 416 kts | 189° |
| 2026-04-23 13:38 | 26.91485 | 119.55428 | 24356 ft | 414 kts | 189° |
| 2026-04-23 13:38 | 26.88612 | 119.55407 | 23844 ft | 412 kts | 189° |
| 2026-04-23 13:39 | 26.85757 | 119.55385 | 23267 ft | 410 kts | 189° |
| 2026-04-23 13:39 | 26.82922 | 119.55362 | 22684 ft | 406 kts | 188° |
| 2026-04-23 13:39 | 26.80117 | 119.55343 | 22208 ft | 400 kts | 188° |
| 2026-04-23 13:39 | 26.77415 | 119.55324 | 21700 ft | 395 kts | 188° |
| 2026-04-23 13:40 | 26.74664 | 119.55306 | 21165 ft | 392 kts | 188° |
| 2026-04-23 13:40 | 26.71957 | 119.55287 | 20691 ft | 388 kts | 188° |
| 2026-04-23 13:40 | 26.69269 | 119.55267 | 20217 ft | 384 kts | 188° |
| 2026-04-23 13:40 | 26.66603 | 119.55248 | 19735 ft | 382 kts | 188° |
| 2026-04-23 13:41 | 26.63956 | 119.55228 | 19253 ft | 379 kts | 188° |
| 2026-04-23 13:41 | 26.61337 | 119.55208 | 18751 ft | 377 kts | 188° |
| 2026-04-23 13:41 | 26.58720 | 119.55190 | 18259 ft | 372 kts | 188° |
| 2026-04-23 13:41 | 26.56139 | 119.55173 | 17744 ft | 371 kts | 188° |
| 2026-04-23 13:42 | 26.53550 | 119.55150 | 17252 ft | 371 kts | 188° |
| 2026-04-23 13:42 | 26.50971 | 119.55127 | 16748 ft | 370 kts | 187° |
| 2026-04-23 13:42 | 26.48425 | 119.55105 | 16267 ft | 370 kts | 187° |
| 2026-04-23 13:42 | 26.45851 | 119.55086 | 15797 ft | 371 kts | 187° |
| 2026-04-23 13:43 | 26.43268 | 119.55069 | 15333 ft | 369 kts | 187° |
| 2026-04-23 13:43 | 26.40700 | 119.55209 | 14851 ft | 375 kts | 175° |
| 2026-04-23 13:43 | 26.38228 | 119.56272 | 14376 ft | 388 kts | 157° |
| 2026-04-23 13:43 | 26.36073 | 119.58179 | 13762 ft | 404 kts | 137° |
| 2026-04-23 13:44 | 26.34230 | 119.60551 | 13144 ft | 403 kts | 136° |
| 2026-04-23 13:44 | 26.32437 | 119.62934 | 12678 ft | 399 kts | 134° |
| 2026-04-23 13:44 | 26.30686 | 119.65301 | 12192 ft | 394 kts | 135° |
| 2026-04-23 13:44 | 26.28915 | 119.67608 | 11740 ft | 388 kts | 136° |
| 2026-04-23 13:45 | 26.27139 | 119.69852 | 11296 ft | 382 kts | 140° |
| 2026-04-23 13:45 | 26.25033 | 119.71491 | 11024 ft | 357 kts | 164° |
| 2026-04-23 13:45 | 26.22717 | 119.72132 | 10872 ft | 334 kts | 181° |
| 2026-04-23 13:45 | 26.20453 | 119.72073 | 10608 ft | 319 kts | 193° |
| 2026-04-23 13:46 | 26.18373 | 119.71456 | 10292 ft | 309 kts | 206° |
| 2026-04-23 13:46 | 26.16451 | 119.70443 | 10006 ft | 302 kts | 210° |
| 2026-04-23 13:46 | 26.14599 | 119.69370 | 9687 ft | 298 kts | 211° |
| 2026-04-23 13:46 | 26.12775 | 119.68307 | 9349 ft | 294 kts | 210° |
| 2026-04-23 13:47 | 26.10967 | 119.67268 | 8964 ft | 291 kts | 210° |
| 2026-04-23 13:47 | 26.09166 | 119.66247 | 8442 ft | 289 kts | 210° |
| 2026-04-23 13:47 | 26.07382 | 119.65241 | 7953 ft | 287 kts | 209° |
| 2026-04-23 13:47 | 26.05618 | 119.64246 | 7561 ft | 282 kts | 209° |
| 2026-04-23 13:48 | 26.03880 | 119.63270 | 7167 ft | 278 kts | 208° |
| 2026-04-23 13:48 | 26.02183 | 119.62316 | 6911 ft | 270 kts | 208° |
| 2026-04-23 13:48 | 26.00532 | 119.61388 | 6658 ft | 263 kts | 208° |
| 2026-04-23 13:48 | 25.98916 | 119.60478 | 6393 ft | 257 kts | 208° |
| 2026-04-23 13:49 | 25.97326 | 119.59580 | 6107 ft | 255 kts | 208° |
| 2026-04-23 13:49 | 25.95746 | 119.58690 | 5821 ft | 255 kts | 207° |
| 2026-04-23 13:49 | 25.94158 | 119.57793 | 5555 ft | 257 kts | 207° |
| 2026-04-23 13:49 | 25.92557 | 119.56884 | 5286 ft | 259 kts | 207° |
| 2026-04-23 13:50 | 25.90968 | 119.55978 | 5030 ft | 261 kts | 208° |
| 2026-04-23 13:50 | 25.89317 | 119.55051 | 4771 ft | 264 kts | 207° |
| 2026-04-23 13:50 | 25.87685 | 119.54140 | 4497 ft | 267 kts | 207° |
| 2026-04-23 13:50 | 25.86021 | 119.53211 | 4205 ft | 266 kts | 211° |
| 2026-04-23 13:51 | 25.84413 | 119.52257 | 3929 ft | 260 kts | 208° |
| 2026-04-23 13:51 | 25.82799 | 119.51371 | 3656 ft | 257 kts | 206° |
| 2026-04-23 13:51 | 25.81219 | 119.50500 | 3405 ft | 250 kts | 206° |
| 2026-04-23 13:51 | 25.79698 | 119.49650 | 3139 ft | 241 kts | 205° |
| 2026-04-23 13:52 | 25.78165 | 119.48805 | 3075 ft | 258 kts | 204° |
| 2026-04-23 13:52 | 25.76467 | 119.48491 | 2993 ft | 241 kts | 161° |
| 2026-04-23 13:52 | 25.75069 | 119.49260 | 2994 ft | 213 kts | 138° |
| 2026-04-23 13:52 | 25.74123 | 119.50397 | 2960 ft | 189 kts | 114° |
| 2026-04-23 13:53 | 25.73548 | 119.51666 | 3017 ft | 185 kts | 112° |
| 2026-04-23 13:53 | 25.73186 | 119.53019 | 2984 ft | 183 kts | 81° |
| 2026-04-23 13:53 | 25.73501 | 119.54323 | 2985 ft | 168 kts | 54° |
| 2026-04-23 13:53 | 25.74305 | 119.55032 | 3010 ft | 138 kts | 21° |
| 2026-04-23 13:54 | 25.75128 | 119.55563 | 2986 ft | 133 kts | 33° |
| 2026-04-23 13:54 | 25.75919 | 119.56139 | 3054 ft | 145 kts | 31° |
| 2026-04-23 13:54 | 25.76733 | 119.56838 | 3008 ft | 147 kts | 33° |
| 2026-04-23 13:54 | 25.77599 | 119.57355 | 3001 ft | 136 kts | 24° |
| 2026-04-23 13:55 | 25.78462 | 119.57821 | 2959 ft | 139 kts | 25° |
| 2026-04-23 13:55 | 25.79338 | 119.58313 | 2775 ft | 144 kts | 26° |
| 2026-04-23 13:55 | 25.80258 | 119.58660 | 2620 ft | 142 kts | 15° |
| 2026-04-23 13:55 | 25.81052 | 119.59249 | 2456 ft | 134 kts | 43° |
| 2026-04-23 13:56 | 25.81819 | 119.59844 | 2239 ft | 132 kts | 15° |
| 2026-04-23 13:56 | 25.82673 | 119.60188 | 1778 ft | 147 kts | 28° |
| 2026-04-23 13:56 | 25.83544 | 119.60697 | 1741 ft | 136 kts | 28° |
| 2026-04-23 13:56 | 25.84415 | 119.61200 | 1673 ft | 141 kts | 27° |
| 2026-04-23 13:57 | 25.85266 | 119.61682 | 1517 ft | 136 kts | 25° |
| 2026-04-23 13:57 | 25.86090 | 119.62200 | 1346 ft | 137 kts | 27° |
| 2026-04-23 13:57 | 25.86960 | 119.62574 | 1151 ft | 130 kts | 24° |
| 2026-04-23 13:57 | 25.87766 | 119.63110 | 994 ft | 138 kts | 27° |
| 2026-04-23 13:58 | 25.88659 | 119.63606 | 775 ft | 144 kts | 26° |
| 2026-04-23 13:58 | 25.89527 | 119.64102 | 600 ft | 141 kts | 28° |
| 2026-04-23 13:58 | 25.90407 | 119.64567 | 414 ft | 141 kts | 21° |
| 2026-04-23 13:58 | 25.91271 | 119.65107 | 274 ft | 143 kts | 18° |
| 2026-04-23 13:59 | 25.92177 | 119.65556 | 101 ft | 144 kts | 38° |
| 2026-04-23 13:59 | 25.93187 | 119.66191 | 456 ft | 248 kts | 20° |
| 2026-04-23 13:59 | 25.94587 | 119.66779 | 982 ft | 184 kts | 21° |
| 2026-04-23 13:59 | 25.95686 | 119.67242 | 1027 ft | 162 kts | 20° |
| 2026-04-23 14:00 | 25.96412 | 119.67500 | 585 ft | 173 kts | 19° |
| 2026-04-23 14:00 | 25.98593 | 119.68200 | 1082 ft | 232 kts | 14° |
| 2026-04-23 14:00 | 26.00050 | 119.68293 | 1316 ft | 195 kts | 343° |
| 2026-04-23 14:00 | 26.01230 | 119.67665 | 951 ft | 195 kts | 336° |
| 2026-04-23 14:01 | 26.02428 | 119.66826 | 466 ft | 204 kts | 314° |
| 2026-04-23 14:01 | 26.02885 | 119.65448 | 487 ft | 193 kts | 265° |
| 2026-04-23 14:01 | 26.02308 | 119.64150 | 578 ft | 188 kts | 229° |
| 2026-04-23 14:01 | 26.01388 | 119.63091 | 627 ft | 194 kts | 213° |
| 2026-04-23 14:02 | 26.00236 | 119.62372 | 800 ft | 188 kts | 207° |
| 2026-04-23 14:02 | 25.99042 | 119.61649 | 821 ft | 199 kts | 206° |
| 2026-04-23 14:02 | 25.97822 | 119.60910 | 1004 ft | 207 kts | 206° |
| 2026-04-23 14:02 | 25.96509 | 119.60117 | 1255 ft | 223 kts | 207° |
| 2026-04-23 14:03 | 25.95127 | 119.59277 | 1453 ft | 228 kts | 206° |
| 2026-04-23 14:03 | 25.93723 | 119.58466 | 1683 ft | 227 kts | 206° |
| 2026-04-23 14:03 | 25.92340 | 119.57611 | 1896 ft | 227 kts | 207° |
| 2026-04-23 14:03 | 25.90961 | 119.56755 | 2111 ft | 229 kts | 207° |
| 2026-04-23 14:04 | 25.89557 | 119.55888 | 2322 ft | 232 kts | 207° |
| 2026-04-23 14:04 | 25.88150 | 119.55023 | 2530 ft | 232 kts | 207° |
| 2026-04-23 14:04 | 25.86732 | 119.54153 | 2761 ft | 234 kts | 207° |
| 2026-04-23 14:04 | 25.85311 | 119.53283 | 2971 ft | 232 kts | 208° |
| 2026-04-23 14:05 | 25.83911 | 119.52425 | 3006 ft | 228 kts | 208° |
| 2026-04-23 14:05 | 25.82527 | 119.51576 | 2981 ft | 226 kts | 208° |
| 2026-04-23 14:05 | 25.81153 | 119.50739 | 3012 ft | 227 kts | 208° |
| 2026-04-23 14:05 | 25.79758 | 119.49888 | 3001 ft | 230 kts | 208° |
| 2026-04-23 14:06 | 25.78364 | 119.49041 | 3030 ft | 224 kts | 208° |
| 2026-04-23 14:06 | 25.76956 | 119.48399 | 2973 ft | 217 kts | 179° |
| 2026-04-23 14:06 | 25.75670 | 119.48909 | 2990 ft | 186 kts | 130° |
| 2026-04-23 14:06 | 25.75086 | 119.50055 | 2981 ft | 161 kts | 106° |
| 2026-04-23 14:07 | 25.74786 | 119.51166 | 3012 ft | 149 kts | 109° |
| 2026-04-23 14:07 | 25.73638 | 119.53250 | 2992 ft | 155 kts | 107° |
| 2026-04-23 14:07 | 25.73650 | 119.54347 | 2994 ft | 140 kts | 59° |
| 2026-04-23 14:08 | 25.74207 | 119.55227 | 3011 ft | 144 kts | 42° |
| 2026-04-23 14:08 | 25.75047 | 119.55812 | 3039 ft | 142 kts | 28° |
| 2026-04-23 14:08 | 25.75907 | 119.56339 | 3031 ft | 140 kts | 28° |
| 2026-04-23 14:08 | 25.76802 | 119.56867 | 3025 ft | 148 kts | 28° |
| 2026-04-23 14:09 | 25.77688 | 119.57378 | 3006 ft | 139 kts | 27° |
| 2026-04-23 14:09 | 25.78573 | 119.57884 | 2790 ft | 157 kts | 28° |
| 2026-04-23 14:09 | 25.79489 | 119.58403 | 2701 ft | 136 kts | 28° |
| 2026-04-23 14:09 | 25.80329 | 119.58879 | 2555 ft | 138 kts | 30° |
| 2026-04-23 14:10 | 25.80884 | 119.59197 | 2448 ft | 132 kts | 28° |
| 2026-04-23 14:10 | 25.81694 | 119.59656 | 2282 ft | 131 kts | 29° |
| 2026-04-23 14:10 | 25.82515 | 119.60123 | 2109 ft | 134 kts | 30° |
| 2026-04-23 14:10 | 25.83348 | 119.60596 | 1929 ft | 132 kts | 30° |
| 2026-04-23 14:11 | 25.84145 | 119.61049 | 1749 ft | 126 kts | 30° |
| 2026-04-23 14:11 | 25.84923 | 119.61491 | 1590 ft | 126 kts | 30° |
| 2026-04-23 14:11 | 25.85696 | 119.61930 | 1448 ft | 124 kts | 30° |
| 2026-04-23 14:11 | 25.86466 | 119.62368 | 1287 ft | 126 kts | 29° |
| 2026-04-23 14:12 | 25.87254 | 119.62814 | 1112 ft | 126 kts | 29° |
| 2026-04-23 14:12 | 25.88043 | 119.63264 | 950 ft | 131 kts | 27° |
| 2026-04-23 14:12 | 25.88841 | 119.63716 | 763 ft | 125 kts | 28° |
| 2026-04-23 14:12 | 25.89602 | 119.64147 | 598 ft | 120 kts | 30° |
| 2026-04-23 14:13 | 25.90358 | 119.64576 | 406 ft | 126 kts | 27° |
| 2026-04-23 14:13 | 25.91152 | 119.65011 | 217 ft | 125 kts | 27° |
| 2026-04-23 14:13 | 25.91897 | 119.65428 | 93 ft | 117 kts | 31° |
| 2026-04-23 14:13 | 25.92591 | 119.65848 | 19 ft | 104 kts | 28° |
| 2026-04-23 14:14 | 25.93103 | 119.66127 | 18 ft | 54 kts | 25° |
| 2026-04-23 14:14 | 25.93369 | 119.66277 | 19 ft | 41 kts | 28° |
| 2026-04-23 14:14 | 25.93539 | 119.66380 | 19 ft | 21 kts | 29° |
| 2026-04-23 14:14 | 25.93672 | 119.66449 | 17 ft | 21 kts | 25° |
| 2026-04-23 14:15 | 25.93796 | 119.66520 | 16 ft | 20 kts | 28° |
| 2026-04-23 14:15 | 25.93918 | 119.66593 | 18 ft | 19 kts | 29° |
| 2026-04-23 14:15 | 25.93979 | 119.66650 | 17 ft | 8 kts | 47° |
| 2026-04-23 14:15 | 25.94014 | 119.66700 | 18 ft | 8 kts | 55° |
| 2026-04-23 14:16 | 25.94045 | 119.66751 | 19 ft | 8 kts | 60° |
| 2026-04-23 14:16 | 25.94074 | 119.66801 | 20 ft | 8 kts | 55° |
| 2026-04-23 14:16 | 25.94090 | 119.66852 | 21 ft | 7 kts | 108° |
| 2026-04-23 14:16 | 25.94066 | 119.66902 | 23 ft | 7 kts | 106° |
| 2026-04-23 14:17 | 25.94052 | 119.66956 | 22 ft | 7 kts | 107° |
| 2026-04-23 14:17 | 25.94014 | 119.66980 | 22 ft | 7 kts | 186° |
| 2026-04-23 14:17 | 25.93967 | 119.66957 | 24 ft | 8 kts | 207° |
| 2026-04-23 14:17 | 25.93917 | 119.66929 | 22 ft | 8 kts | 207° |
| 2026-04-23 14:18 | 25.93862 | 119.66898 | 22 ft | 9 kts | 208° |
| 2026-04-23 14:18 | 25.93808 | 119.66867 | 25 ft | 9 kts | 207° |
| 2026-04-23 14:18 | 25.93760 | 119.66879 | 23 ft | 9 kts | 115° |
| 2026-04-23 14:18 | 25.93721 | 119.66912 | 22 ft | 1 kts | 180° |
| 2026-04-23 14:19 | 25.93710 | 119.66906 | 24 ft | 2 kts | 206° |
| 2026-04-23 14:19 | 25.93691 | 119.66895 | 23 ft | 4 kts | 207° |
| 2026-04-23 14:19 | 25.93663 | 119.66879 | 22 ft | 5 kts | 207° |
| 2026-04-23 14:19 | 25.93626 | 119.66863 | 22 ft | 6 kts | 184° |
| 2026-04-23 14:20 | 25.93603 | 119.66889 | 22 ft | 0 kts | 116° |
| 2026-04-23 14:20 | 25.93600 | 119.66896 | 22 ft | 2 kts | 116° |
| 2026-04-23 14:20 | 25.93593 | 119.66912 | 24 ft | 3 kts | 117° |
| 2026-04-23 14:20 | 25.93581 | 119.66936 | 24 ft | 4 kts | 119° |
| 2026-04-23 14:21 | 25.93580 | 119.66937 | 23 ft | 0 kts | 119° |